createdAt,value
2018-01-20T00:00:32.140Z,25.25
2018-01-20T00:03:00.369Z,25.35
2018-01-20T00:05:27.860Z,18.50
2018-01-20T00:07:56.101Z,24.63
2018-01-20T00:10:35.535Z,25.52
2018-01-20T00:13:03.001Z,23.30
2018-01-20T00:15:30.459Z,21.77
2018-01-20T00:18:03.950Z,25.95
2018-01-20T00:20:31.436Z,22.52
2018-01-20T00:22:59.678Z,25.98
2018-01-20T00:25:27.165Z,18.92
2018-01-20T00:27:55.383Z,25.05
2018-01-20T00:30:22.861Z,21.17
2018-01-20T00:32:50.319Z,24.00
2018-01-20T00:35:17.791Z,22.10
2018-01-20T00:37:45.262Z,22.77
2018-01-20T00:40:12.719Z,26.30
2018-01-20T00:42:40.969Z,25.85
2018-01-20T00:45:08.449Z,21.15
2018-01-20T00:47:35.918Z,22.58
2018-01-20T00:50:04.189Z,23.25
2018-01-20T00:52:32.441Z,24.15
2018-01-20T00:54:59.929Z,20.50
2018-01-20T00:57:28.193Z,23.75
2018-01-20T00:59:55.743Z,25.70
2018-01-20T01:02:23.203Z,23.35
2018-01-20T01:04:50.798Z,23.50
2018-01-20T01:07:18.999Z,22.30
2018-01-20T01:09:46.461Z,23.62
2018-01-20T01:12:15.027Z,20.65
2018-01-20T01:14:42.527Z,24.87
2018-01-20T01:17:10.097Z,22.25
2018-01-20T01:19:37.661Z,20.45
2018-01-20T01:22:05.898Z,22.85
2018-01-20T01:24:33.367Z,28.15
2018-01-20T01:27:00.839Z,21.98
2018-01-20T01:29:29.067Z,20.17
2018-01-20T01:31:56.542Z,21.92
2018-01-20T01:34:24.030Z,23.10
2018-01-20T01:36:51.597Z,20.95
2018-01-20T01:39:19.839Z,22.35
2018-01-20T01:41:47.329Z,24.37
2018-01-20T01:44:14.884Z,22.23
2018-01-20T01:46:42.337Z,21.40
2018-01-20T01:49:09.807Z,25.62
2018-01-20T01:51:38.059Z,25.98
2018-01-20T01:54:06.295Z,23.92
2018-01-20T01:56:33.752Z,20.17
2018-01-20T01:59:01.233Z,20.40
2018-01-20T02:01:28.769Z,19.48
2018-01-20T02:03:56.974Z,21.92
2018-01-20T02:06:24.449Z,22.33
2018-01-20T02:08:51.905Z,24.25
2018-01-20T02:11:19.465Z,23.30
2018-01-20T02:13:46.926Z,23.00
2018-01-20T02:16:14.390Z,17.73
2018-01-20T02:18:42.626Z,25.00
2018-01-20T02:21:10.209Z,25.08
2018-01-20T02:23:37.667Z,23.70
2018-01-20T02:26:05.214Z,23.80
2018-01-20T02:28:32.680Z,25.80
2018-01-20T02:31:00.346Z,24.87
2018-01-20T02:33:27.811Z,27.10
2018-01-20T02:35:56.076Z,25.65
2018-01-20T02:38:23.544Z,23.50
2018-01-20T02:40:51.785Z,21.80
2018-01-20T02:43:19.246Z,24.02
2018-01-20T02:45:46.813Z,27.62
2018-01-20T02:48:14.307Z,24.30
2018-01-20T02:50:42.531Z,25.23
2018-01-20T02:53:09.991Z,20.20
2018-01-20T02:55:37.565Z,22.80
2018-01-20T02:58:05.021Z,22.75
2018-01-20T03:00:33.268Z,23.50
2018-01-20T03:03:00.737Z,22.35
2018-01-20T03:05:28.205Z,24.40
2018-01-20T03:07:55.674Z,24.00
2018-01-20T03:10:23.956Z,22.85
2018-01-20T03:12:52.185Z,25.02
2018-01-20T03:15:19.636Z,28.87
2018-01-20T03:17:47.116Z,24.08
2018-01-20T03:20:14.690Z,19.42
2018-01-20T03:22:42.156Z,30.42
2018-01-20T03:25:09.617Z,22.05
2018-01-20T03:27:40.891Z,24.20
2018-01-20T03:30:08.346Z,24.10
2018-01-20T03:32:35.818Z,23.55
2018-01-20T03:35:03.290Z,27.85
2018-01-20T03:37:30.752Z,20.30
2018-01-20T03:39:58.221Z,22.65
2018-01-20T03:42:25.702Z,25.62
2018-01-20T03:44:53.165Z,27.27
2018-01-20T03:47:21.400Z,22.42
2018-01-20T03:49:48.893Z,30.77
2018-01-20T03:52:17.113Z,25.10
2018-01-20T03:54:44.571Z,27.90
2018-01-20T03:57:12.061Z,21.42
2018-01-20T03:59:39.536Z,28.83
2018-01-20T04:02:07.100Z,25.98
2018-01-20T04:04:35.337Z,21.62
2018-01-20T04:07:02.816Z,27.00
2018-01-20T04:09:30.284Z,23.40
2018-01-20T04:11:58.520Z,27.62
2018-01-20T04:14:25.990Z,26.85
2018-01-20T04:16:53.563Z,20.98
2018-01-20T04:19:21.028Z,25.08
2018-01-20T04:21:49.407Z,23.02
2018-01-20T04:24:16.966Z,25.25
2018-01-20T04:26:45.196Z,26.60
2018-01-20T04:29:12.664Z,22.85
2018-01-20T04:31:40.136Z,23.77
2018-01-20T04:34:07.611Z,21.75
2018-01-20T04:36:35.893Z,27.87
2018-01-20T04:39:04.123Z,23.75
2018-01-20T04:41:31.621Z,29.60
2018-01-20T04:43:59.853Z,28.15
2018-01-20T04:46:27.330Z,24.80
2018-01-20T04:48:54.788Z,23.10
2018-01-20T04:51:22.258Z,24.37
2018-01-20T04:53:49.825Z,26.23
2018-01-20T04:56:18.085Z,23.65
2018-01-20T04:58:45.548Z,23.33
2018-01-20T05:01:13.103Z,23.30
2018-01-20T05:03:40.564Z,26.12
2018-01-20T05:06:08.125Z,22.73
2018-01-20T05:08:35.725Z,27.52
2018-01-20T05:11:03.200Z,22.42
2018-01-20T05:13:30.673Z,28.75
2018-01-20T05:15:58.143Z,27.52
2018-01-20T05:18:25.620Z,22.92
2018-01-20T05:20:53.853Z,21.87
2018-01-20T05:23:21.323Z,29.48
2018-01-20T05:25:48.819Z,22.52
2018-01-20T05:28:17.057Z,25.45
2018-01-20T05:30:44.616Z,23.52
2018-01-20T05:33:12.071Z,27.60
2018-01-20T05:35:39.550Z,29.77
2018-01-20T05:38:07.779Z,22.60
2018-01-20T05:40:35.255Z,18.87
2018-01-20T05:43:02.726Z,24.40
2018-01-20T05:45:30.960Z,24.48
2018-01-20T05:47:58.480Z,29.58
2018-01-20T05:50:26.700Z,25.50
2018-01-20T05:52:54.165Z,28.12
2018-01-20T05:55:21.638Z,26.52
2018-01-20T05:57:49.107Z,25.37
2018-01-20T06:00:16.556Z,20.83
2018-01-20T06:02:44.184Z,24.10
2018-01-20T06:05:11.653Z,22.40
2018-01-20T06:07:39.133Z,20.00
2018-01-20T06:10:06.717Z,30.00
2018-01-20T06:12:34.258Z,28.75
2018-01-20T06:15:03.250Z,25.33
2018-01-20T06:17:30.720Z,22.87
2018-01-20T06:19:58.959Z,25.70
2018-01-20T06:22:26.446Z,25.02
2018-01-20T06:24:54.682Z,21.33
2018-01-20T06:27:22.140Z,23.98
2018-01-20T06:29:49.618Z,21.50
2018-01-20T06:32:18.592Z,21.95
2018-01-20T06:34:46.056Z,23.80
2018-01-20T06:37:13.526Z,20.73
2018-01-20T06:39:40.991Z,23.10
2018-01-20T06:42:09.230Z,24.80
2018-01-20T06:44:36.923Z,26.45
2018-01-20T06:47:04.404Z,22.52
2018-01-20T06:49:32.669Z,19.95
2018-01-20T06:52:00.902Z,24.92
2018-01-20T06:54:28.473Z,22.85
2018-01-20T06:56:56.040Z,19.10
2018-01-20T06:59:23.521Z,25.83
2018-01-20T07:01:51.756Z,24.02
2018-01-20T07:04:19.221Z,21.33
2018-01-20T07:06:46.687Z,21.90
2018-01-20T07:09:14.275Z,25.40
2018-01-20T07:11:42.499Z,22.90
2018-01-20T07:14:09.967Z,20.50
2018-01-20T07:16:37.439Z,24.20
2018-01-20T07:19:05.125Z,28.55
2018-01-20T07:21:33.405Z,28.27
2018-01-20T07:24:01.928Z,27.85
2018-01-20T07:26:29.403Z,23.67
2018-01-20T07:28:56.864Z,30.55
2018-01-20T07:31:24.359Z,26.25
2018-01-20T07:33:52.601Z,20.35
2018-01-20T07:36:20.162Z,21.37
2018-01-20T07:38:47.643Z,21.87
2018-01-20T07:41:15.897Z,26.33
2018-01-20T07:43:43.517Z,25.62
2018-01-20T07:46:11.018Z,21.85
2018-01-20T07:48:38.484Z,22.50
2018-01-20T07:51:06.747Z,24.83
2018-01-20T07:53:34.588Z,29.80
2018-01-20T07:56:02.119Z,24.83
2018-01-20T07:58:29.635Z,25.05
2018-01-20T08:00:57.121Z,22.25
2018-01-20T08:03:24.674Z,20.92
2018-01-20T08:05:52.136Z,25.23
2018-01-20T08:08:19.605Z,25.50
2018-01-20T08:10:47.112Z,19.00
2018-01-20T08:13:14.580Z,19.67
2018-01-20T08:15:42.039Z,31.75
2018-01-20T08:18:10.301Z,29.12
2018-01-20T08:20:39.286Z,23.62
2018-01-20T08:23:06.758Z,21.23
2018-01-20T08:25:34.998Z,20.17
2018-01-20T08:28:02.489Z,27.33
2018-01-20T08:30:29.957Z,20.45
2018-01-20T08:32:58.188Z,23.65
2018-01-20T08:35:25.667Z,19.45
2018-01-20T08:37:53.244Z,22.62
2018-01-20T08:40:21.492Z,27.58
2018-01-20T08:42:49.114Z,27.25
2018-01-20T08:45:16.673Z,26.30
2018-01-20T08:47:44.124Z,18.15
2018-01-20T08:50:11.591Z,17.77
2018-01-20T08:52:39.053Z,19.25
2018-01-20T08:55:06.548Z,20.50
2018-01-20T08:57:34.007Z,16.98
2018-01-20T09:00:01.493Z,19.80
2018-01-20T09:02:29.739Z,17.60
2018-01-20T09:04:57.191Z,17.58
2018-01-20T09:07:24.657Z,18.25
2018-01-20T09:09:52.112Z,18.50
2018-01-20T09:12:19.601Z,19.02
2018-01-20T09:14:47.070Z,22.52
2018-01-20T09:17:14.541Z,22.83
2018-01-20T09:19:42.010Z,25.15
2018-01-20T09:22:09.647Z,18.15
2018-01-20T09:24:37.116Z,16.27
2018-01-20T09:27:04.618Z,19.58
2018-01-20T09:29:32.840Z,19.90
2018-01-20T09:32:00.339Z,19.42
2018-01-20T09:34:27.908Z,24.85
2018-01-20T09:36:55.476Z,21.20
2018-01-20T09:39:23.735Z,20.23
2018-01-20T09:41:51.219Z,25.37
2018-01-20T09:44:19.464Z,17.77
2018-01-20T09:46:46.936Z,17.77
2018-01-20T09:49:15.205Z,18.70
2018-01-20T09:51:42.674Z,22.05
2018-01-20T09:54:11.070Z,16.42
2018-01-20T09:56:38.685Z,18.02
2018-01-20T09:59:06.227Z,16.80
2018-01-20T10:01:33.709Z,16.67
2018-01-20T10:04:01.218Z,17.17
2018-01-20T10:06:28.738Z,17.27
2018-01-20T10:08:56.959Z,12.35
2018-01-20T10:11:24.461Z,16.12
2018-01-20T10:13:51.995Z,13.77
2018-01-20T10:16:19.474Z,15.73
2018-01-20T10:18:46.941Z,15.05
2018-01-20T10:21:15.167Z,16.35
2018-01-20T10:23:42.620Z,18.42
2018-01-20T10:26:10.106Z,20.17
2018-01-20T10:28:37.574Z,14.85
2018-01-20T10:31:05.185Z,17.08
2018-01-20T10:33:32.701Z,15.10
2018-01-20T10:36:01.019Z,15.32
2018-01-20T10:38:28.528Z,16.12
2018-01-20T10:40:56.009Z,17.87
2018-01-20T10:43:24.245Z,17.12
2018-01-20T10:45:51.724Z,14.98
2018-01-20T10:48:19.182Z,16.52
2018-01-20T10:50:46.681Z,16.67
2018-01-20T10:53:14.192Z,14.70
2018-01-20T10:55:41.754Z,14.77
2018-01-20T10:58:09.292Z,13.80
2018-01-20T11:00:36.750Z,12.18
2018-01-20T11:03:04.323Z,15.50
2018-01-20T11:05:31.882Z,12.07
2018-01-20T11:07:59.357Z,17.45
2018-01-20T11:10:27.651Z,13.43
2018-01-20T11:12:55.161Z,12.27
2018-01-20T11:15:22.622Z,16.90
2018-01-20T11:17:50.097Z,15.70
2018-01-20T11:20:18.363Z,13.27
2018-01-20T11:22:45.824Z,12.27
2018-01-20T11:25:14.049Z,12.32
2018-01-20T11:27:41.504Z,13.55
2018-01-20T11:30:08.959Z,11.12
2018-01-20T11:32:36.988Z,10.05
2018-01-20T11:35:05.212Z,12.15
2018-01-20T11:37:32.696Z,9.70
2018-01-20T11:40:00.260Z,12.95
2018-01-20T11:42:27.769Z,17.35
2018-01-20T11:44:55.997Z,15.85
2018-01-20T11:47:23.556Z,11.60
2018-01-20T11:49:51.025Z,14.80
2018-01-20T11:52:19.254Z,17.35
2018-01-20T11:54:46.721Z,18.15
2018-01-20T11:57:14.184Z,14.82
2018-01-20T11:59:41.643Z,12.32
2018-01-20T12:02:09.149Z,15.77
2018-01-20T12:04:36.622Z,13.32
2018-01-20T12:07:04.148Z,15.65
2018-01-20T12:09:32.367Z,18.58
2018-01-20T12:11:59.845Z,16.55
2018-01-20T12:14:27.338Z,15.38
2018-01-20T12:16:55.569Z,13.43
2018-01-20T12:19:23.048Z,15.02
2018-01-20T12:21:50.497Z,12.27
2018-01-20T12:24:17.960Z,14.57
2018-01-20T12:26:45.420Z,10.82
2018-01-20T12:29:12.884Z,11.90
2018-01-20T12:31:41.140Z,23.75
2018-01-20T12:34:08.596Z,10.57
2018-01-20T12:36:36.056Z,9.75
2018-01-20T12:39:03.512Z,16.27
2018-01-20T12:41:31.809Z,13.23
2018-01-20T12:44:00.024Z,11.65
2018-01-20T12:46:27.492Z,10.20
2018-01-20T12:48:56.218Z,14.05
2018-01-20T12:51:23.759Z,11.68
2018-01-20T12:53:51.321Z,15.75
2018-01-20T12:56:18.808Z,13.95
2018-01-20T12:58:47.040Z,19.08
2018-01-20T13:01:14.533Z,14.00
2018-01-20T13:03:42.019Z,11.05
2018-01-20T13:06:09.475Z,17.33
2018-01-20T13:08:36.935Z,14.02
2018-01-20T13:11:04.400Z,12.25
2018-01-20T13:13:31.901Z,10.90
2018-01-20T13:15:59.356Z,15.60
2018-01-20T13:18:27.631Z,17.60
2018-01-20T13:20:55.122Z,13.88
2018-01-20T13:23:22.614Z,12.88
2018-01-20T13:25:50.100Z,15.05
2018-01-20T13:28:17.578Z,14.48
2018-01-20T13:30:45.821Z,14.20
2018-01-20T13:33:13.294Z,14.75
2018-01-20T13:35:40.748Z,13.80
2018-01-20T13:38:08.219Z,13.80
2018-01-20T13:40:36.543Z,16.42
2018-01-20T13:43:04.004Z,14.25
2018-01-20T13:45:31.461Z,12.50
2018-01-20T13:47:58.926Z,10.70
2018-01-20T13:50:26.395Z,11.75
2018-01-20T13:52:53.856Z,18.08
2018-01-20T13:55:21.321Z,14.57
2018-01-20T13:57:48.775Z,13.82
2018-01-20T14:00:17.768Z,11.85
2018-01-20T14:02:45.228Z,10.38
2018-01-20T14:05:12.784Z,19.25
2018-01-20T14:07:40.255Z,12.95
2018-01-20T14:10:08.537Z,10.90
2018-01-20T14:12:36.760Z,18.20
2018-01-20T14:15:04.220Z,15.82
2018-01-20T14:17:31.675Z,13.07
2018-01-20T14:19:59.142Z,12.15
2018-01-20T14:22:26.599Z,13.60
2018-01-20T14:24:54.075Z,11.43
2018-01-20T14:27:21.657Z,11.95
2018-01-20T14:29:49.891Z,12.73
2018-01-20T14:32:17.372Z,11.20
2018-01-20T14:34:44.948Z,16.30
2018-01-20T14:37:15.984Z,14.93
2018-01-20T14:39:44.215Z,16.45
2018-01-20T14:42:11.691Z,11.73
2018-01-20T14:44:39.155Z,14.35
2018-01-20T14:47:06.718Z,17.10
2018-01-20T14:49:34.276Z,15.68
2018-01-20T14:52:01.783Z,14.77
2018-01-20T14:54:29.290Z,13.52
2018-01-20T14:56:58.260Z,17.95
2018-01-20T14:59:25.736Z,15.55
2018-01-20T15:01:53.210Z,14.48
2018-01-20T15:04:21.435Z,15.15
2018-01-20T15:06:48.922Z,17.27
2018-01-20T15:09:16.434Z,15.98
2018-01-20T15:11:43.945Z,19.62
2018-01-20T15:14:11.412Z,14.10
2018-01-20T15:16:39.672Z,18.45
2018-01-20T15:19:07.133Z,21.37
2018-01-20T15:21:34.690Z,19.40
2018-01-20T15:24:02.150Z,16.12
2018-01-20T15:26:29.608Z,19.83
2018-01-20T15:28:57.090Z,24.02
2018-01-20T15:31:24.556Z,19.23
2018-01-20T15:33:52.026Z,16.25
2018-01-20T15:36:19.496Z,15.95
2018-01-20T15:38:46.992Z,20.35
2018-01-20T15:41:14.568Z,21.25
2018-01-20T15:43:42.797Z,17.48
2018-01-20T15:46:10.279Z,20.15
2018-01-20T15:48:37.757Z,19.42
2018-01-20T15:51:06.059Z,20.37
2018-01-20T15:53:33.518Z,28.12
2018-01-20T15:56:00.973Z,19.23
2018-01-20T15:58:28.437Z,21.67
2018-01-20T16:00:55.941Z,20.15
2018-01-20T16:03:23.507Z,17.08
2018-01-20T16:05:51.061Z,30.17
2018-01-20T16:08:18.538Z,24.20
2018-01-20T16:10:46.763Z,20.50
2018-01-20T16:13:14.353Z,23.98
2018-01-20T16:15:43.316Z,22.83
2018-01-20T16:18:10.776Z,16.75
2018-01-20T16:20:38.256Z,19.20
2018-01-20T16:23:05.729Z,22.33
2018-01-20T16:25:33.993Z,25.10
2018-01-20T16:28:01.464Z,22.77
2018-01-20T16:30:29.711Z,27.30
2018-01-20T16:32:57.226Z,22.27
2018-01-20T16:35:24.688Z,24.27
2018-01-20T16:37:52.247Z,24.87
2018-01-20T16:40:19.711Z,24.25
2018-01-20T16:42:47.177Z,22.80
2018-01-20T16:45:14.644Z,25.00
2018-01-20T16:47:42.100Z,22.20
2018-01-20T16:50:09.576Z,25.58
2018-01-20T16:52:37.039Z,23.58
2018-01-20T16:55:05.271Z,21.02
2018-01-20T16:57:32.761Z,23.02
2018-01-20T17:00:00.370Z,25.73
2018-01-20T17:02:27.826Z,19.23
2018-01-20T17:04:55.444Z,21.08
2018-01-20T17:07:23.722Z,20.42
2018-01-20T17:09:51.186Z,21.77
2018-01-20T17:12:19.406Z,21.20
2018-01-20T17:14:46.860Z,22.50
2018-01-20T17:17:14.337Z,20.37
2018-01-20T17:19:41.798Z,30.90
2018-01-20T17:22:09.323Z,24.65
2018-01-20T17:24:36.786Z,28.15
2018-01-20T17:27:04.296Z,21.40
2018-01-20T17:29:31.769Z,25.33
2018-01-20T17:32:00.069Z,21.62
2018-01-20T17:34:27.636Z,22.42
2018-01-20T17:36:55.100Z,32.05
2018-01-20T17:39:22.570Z,21.30
2018-01-20T17:41:50.032Z,20.98
2018-01-20T17:44:17.555Z,21.77
2018-01-20T17:46:45.010Z,21.42
2018-01-20T17:49:12.489Z,26.23
2018-01-20T17:51:39.961Z,24.95
2018-01-20T17:54:07.424Z,22.00
2018-01-20T17:56:34.875Z,26.85
2018-01-20T17:59:02.355Z,23.48
2018-01-20T18:01:30.583Z,28.45
2018-01-20T18:03:58.040Z,22.73
2018-01-20T18:06:25.506Z,24.30
2018-01-20T18:08:56.680Z,23.98
2018-01-20T18:11:24.146Z,22.83
2018-01-20T18:13:52.378Z,24.05
2018-01-20T18:16:19.917Z,32.05
2018-01-20T18:18:47.397Z,23.75
2018-01-20T18:21:14.856Z,24.60
2018-01-20T18:23:42.340Z,22.92
2018-01-20T18:26:09.912Z,21.50
2018-01-20T18:28:38.149Z,19.80
2018-01-20T18:31:05.644Z,20.17
2018-01-20T18:33:33.881Z,20.90
2018-01-20T18:36:01.352Z,22.77
2018-01-20T18:38:28.823Z,20.77
2018-01-20T18:40:56.289Z,22.67
2018-01-20T18:43:24.517Z,21.65
2018-01-20T18:45:51.995Z,18.35
2018-01-20T18:48:19.455Z,22.10
2018-01-20T18:50:47.029Z,21.52
2018-01-20T18:53:14.497Z,19.15
2018-01-20T18:55:42.045Z,20.45
2018-01-20T18:58:09.543Z,24.60
2018-01-20T19:00:37.017Z,25.73
2018-01-20T19:03:04.489Z,19.67
2018-01-20T19:05:32.017Z,23.58
2018-01-20T19:08:00.232Z,23.58
2018-01-20T19:10:28.528Z,31.62
2018-01-20T19:12:56.804Z,21.27
2018-01-20T19:15:25.061Z,19.20
2018-01-20T19:17:54.054Z,16.85
2018-01-20T19:20:21.609Z,22.58
2018-01-20T19:22:49.182Z,19.40
2018-01-20T19:25:16.654Z,21.10
2018-01-20T19:27:44.896Z,20.62
2018-01-20T19:30:12.372Z,21.08
2018-01-20T19:32:39.929Z,18.23
2018-01-20T19:35:07.845Z,20.67
2018-01-20T19:37:35.810Z,19.15
2018-01-20T19:40:03.425Z,24.63
2018-01-20T19:42:30.882Z,19.08
2018-01-20T19:44:58.428Z,21.25
2018-01-20T19:47:26.002Z,24.87
2018-01-20T19:49:54.264Z,21.00
2018-01-20T19:52:21.735Z,25.58
2018-01-20T19:54:49.280Z,23.50
2018-01-20T19:57:16.856Z,29.45
2018-01-20T19:59:44.332Z,18.60
2018-01-20T20:02:11.804Z,21.58
2018-01-20T20:04:39.311Z,21.75
2018-01-20T20:07:06.865Z,18.98
2018-01-20T20:09:34.404Z,21.23
2018-01-20T20:12:01.903Z,16.70
2018-01-20T20:14:29.377Z,20.27
2018-01-20T20:16:56.853Z,23.92
2018-01-20T20:19:24.370Z,24.25
2018-01-20T20:21:51.931Z,21.55
2018-01-20T20:24:19.424Z,17.40
2018-01-20T20:26:46.899Z,20.02
2018-01-20T20:29:14.390Z,22.08
2018-01-20T20:31:42.002Z,24.50
2018-01-20T20:34:09.463Z,21.73
2018-01-20T20:36:36.937Z,25.77
2018-01-20T20:39:04.396Z,26.85
2018-01-20T20:41:31.871Z,20.25
2018-01-20T20:43:59.428Z,22.17
2018-01-20T20:46:26.885Z,22.48
2018-01-20T20:48:55.867Z,26.15
2018-01-20T20:51:23.441Z,22.35
2018-01-20T20:53:52.428Z,20.35
2018-01-20T20:56:19.892Z,25.65
2018-01-20T20:58:47.476Z,16.20
2018-01-20T21:01:15.781Z,20.42
2018-01-20T21:03:43.257Z,20.52
2018-01-20T21:06:10.720Z,19.25
2018-01-20T21:08:38.198Z,21.50
2018-01-20T21:11:05.659Z,21.75
2018-01-20T21:13:33.129Z,27.13
2018-01-20T21:16:01.389Z,21.83
2018-01-20T21:18:28.863Z,19.27
2018-01-20T21:20:57.083Z,20.77
2018-01-20T21:23:24.578Z,20.58
2018-01-20T21:25:52.125Z,21.65
2018-01-20T21:28:19.584Z,24.70
2018-01-20T21:30:47.036Z,20.08
2018-01-20T21:33:15.276Z,19.67
2018-01-20T21:35:42.741Z,18.42
2018-01-20T21:38:10.252Z,17.23
2018-01-20T21:40:37.790Z,17.75
2018-01-20T21:43:05.353Z,24.63
2018-01-20T21:45:32.917Z,19.40
2018-01-20T21:48:00.387Z,22.42
2018-01-20T21:50:28.620Z,18.37
2018-01-20T21:52:56.079Z,18.30
2018-01-20T21:55:23.553Z,25.60
2018-01-20T21:57:51.014Z,20.55
2018-01-20T22:00:18.476Z,20.33
2018-01-20T22:02:45.951Z,18.35
2018-01-20T22:05:14.195Z,19.35
2018-01-20T22:07:41.662Z,26.20
2018-01-20T22:10:09.217Z,19.00
2018-01-20T22:12:36.782Z,20.05
2018-01-20T22:15:04.336Z,19.30
2018-01-20T22:17:31.798Z,20.10
2018-01-20T22:19:59.349Z,23.35
2018-01-20T22:22:26.829Z,21.87
2018-01-20T22:24:55.080Z,22.23
2018-01-20T22:27:22.592Z,22.45
2018-01-20T22:29:50.097Z,23.05
2018-01-20T22:32:17.650Z,25.45
2018-01-20T22:34:45.907Z,22.67
2018-01-20T22:37:13.444Z,26.45
2018-01-20T22:39:40.900Z,28.48
2018-01-20T22:42:08.381Z,23.23
2018-01-20T22:44:35.850Z,24.65
2018-01-20T22:47:03.376Z,23.75
2018-01-20T22:49:30.836Z,20.98
2018-01-20T22:51:58.307Z,18.92
2018-01-20T22:54:25.883Z,28.30
2018-01-20T22:56:53.351Z,25.20
2018-01-20T22:59:20.815Z,21.98
2018-01-20T23:01:49.058Z,20.50
2018-01-20T23:04:16.529Z,23.25
2018-01-20T23:06:44.085Z,22.70
2018-01-20T23:09:11.708Z,22.37
2018-01-20T23:11:39.574Z,24.23
2018-01-20T23:14:08.091Z,19.60
2018-01-20T23:16:35.580Z,23.87
2018-01-20T23:19:03.803Z,25.52
2018-01-20T23:21:31.293Z,20.92
2018-01-20T23:23:58.848Z,18.80
2018-01-20T23:26:29.418Z,21.62
2018-01-20T23:28:56.947Z,20.25
2018-01-20T23:31:24.415Z,20.52
2018-01-20T23:33:52.651Z,22.17
2018-01-20T23:36:20.118Z,21.85
2018-01-20T23:38:47.588Z,20.48
2018-01-20T23:41:15.140Z,24.23
2018-01-20T23:43:42.699Z,24.23
2018-01-20T23:46:10.972Z,20.70
2018-01-20T23:48:38.436Z,27.70
2018-01-20T23:51:05.988Z,25.15
2018-01-20T23:53:33.453Z,23.90
2018-01-20T23:56:00.918Z,23.67
2018-01-20T23:58:29.161Z,35.45
